createdAt,value
2023-03-01T04:18:00.760Z,68.94
2023-03-01T04:21:03.332Z,68.94
2023-03-01T04:24:05.904Z,70.47
2023-03-01T04:27:08.284Z,69.83
2023-03-01T04:30:11.218Z,69.24
2023-03-01T04:33:13.766Z,69.29
2023-03-01T04:36:17.607Z,69.88
2023-03-01T04:39:20.088Z,70.19
2023-03-01T04:42:22.258Z,69.51
2023-03-01T04:45:24.899Z,69.84
2023-03-01T04:48:26.997Z,69.38
2023-03-01T04:51:29.984Z,70.23
2023-03-01T04:54:33.218Z,70.19
2023-03-01T04:57:35.725Z,69.52
2023-03-01T05:00:38.109Z,70.17
2023-03-01T05:03:42.042Z,69.66
2023-03-01T05:06:45.671Z,69.38
2023-03-01T05:09:48.137Z,70.23
2023-03-01T05:12:50.499Z,70.57
2023-03-01T05:15:58.114Z,70.00
2023-03-01T05:19:00.481Z,69.94
2023-03-01T05:22:03.080Z,69.69
2023-03-01T05:25:06.512Z,70.29
2023-03-01T05:28:12.810Z,69.97
2023-03-01T05:31:15.148Z,69.44
2023-03-01T05:34:17.599Z,70.39
2023-03-01T05:37:20.457Z,69.70
2023-03-01T05:40:25.097Z,70.23
2023-03-01T05:43:27.390Z,70.16
2023-03-01T05:46:30.548Z,70.48
2023-03-01T05:49:33.125Z,69.76
2023-03-01T05:52:35.508Z,70.35
2023-03-01T05:55:38.442Z,70.70
2023-03-01T05:58:40.797Z,70.74
2023-03-01T06:01:43.031Z,70.34
2023-03-01T06:04:45.503Z,70.08
2023-03-01T06:07:47.826Z,70.37
2023-03-01T06:10:50.256Z,70.54
2023-03-01T06:13:52.521Z,71.08
2023-03-01T06:16:54.983Z,70.07
2023-03-01T06:19:57.188Z,70.38
2023-03-01T06:23:00.985Z,70.15
2023-03-01T06:26:08.027Z,70.04
2023-03-01T06:29:10.529Z,70.29
2023-03-01T06:32:12.786Z,70.21
2023-03-01T06:35:18.801Z,69.77
2023-03-01T06:38:21.120Z,69.57
2023-03-01T06:41:23.598Z,69.21
2023-03-01T06:44:26.107Z,69.18
2023-03-01T06:47:28.616Z,67.53
2023-03-01T06:50:31.456Z,67.94
2023-03-01T06:53:33.889Z,67.36
2023-03-01T06:56:36.439Z,67.44
2023-03-01T06:59:38.862Z,67.19
2023-03-01T07:02:41.559Z,66.89
2023-03-01T07:05:45.428Z,67.40
2023-03-01T07:08:47.858Z,67.43
2023-03-01T07:11:53.479Z,66.78
2023-03-01T07:14:55.618Z,65.58
2023-03-01T07:17:58.103Z,65.10
2023-03-01T07:21:08.356Z,64.40
2023-03-01T07:24:12.318Z,64.11
2023-03-01T07:27:14.792Z,63.29
2023-03-01T07:30:17.504Z,63.05
2023-03-01T07:33:19.725Z,63.07
2023-03-01T07:36:22.602Z,61.62
2023-03-01T07:39:24.898Z,61.13
2023-03-01T07:42:27.342Z,59.75
2023-03-01T07:45:29.973Z,59.88
2023-03-01T07:48:33.228Z,59.43
2023-03-01T07:51:35.446Z,59.64
2023-03-01T07:54:38.014Z,60.28
2023-03-01T07:57:40.222Z,58.75
2023-03-01T08:00:42.636Z,58.02
2023-03-01T08:03:45.108Z,57.50
2023-03-01T08:06:47.397Z,57.01
2023-03-01T08:09:49.928Z,56.57
2023-03-01T08:12:53.770Z,54.95
2023-03-01T08:16:02.475Z,54.69
2023-03-01T08:19:09.821Z,55.55
2023-03-01T08:22:12.401Z,54.46
2023-03-01T08:25:14.578Z,53.02
2023-03-01T08:28:17.040Z,53.22
2023-03-01T08:31:22.467Z,52.13
2023-03-01T08:34:25.103Z,51.53
2023-03-01T08:37:27.257Z,50.04
2023-03-01T08:40:30.149Z,51.42
2023-03-01T08:43:32.311Z,49.56
2023-03-01T08:46:37.780Z,49.82
2023-03-01T08:49:39.958Z,50.54
2023-03-01T08:52:42.426Z,50.03
2023-03-01T08:55:44.796Z,50.09
2023-03-01T08:58:48.711Z,47.94
2023-03-01T09:01:50.898Z,46.75
2023-03-01T09:04:53.357Z,48.73
2023-03-01T09:07:55.536Z,47.39
2023-03-01T09:10:58.016Z,46.32
2023-03-01T09:14:00.184Z,44.98
2023-03-01T09:17:03.958Z,45.87
2023-03-01T09:20:06.926Z,43.88
2023-03-01T09:23:09.401Z,43.90
2023-03-01T09:26:18.083Z,43.50
2023-03-01T09:29:20.543Z,42.60
2023-03-01T09:32:22.869Z,41.97
2023-03-01T09:35:25.471Z,41.05
2023-03-01T09:38:28.510Z,39.55
2023-03-01T09:42:03.485Z,39.26
2023-03-01T09:45:12.495Z,37.32
2023-03-01T09:48:19.834Z,37.08
2023-03-01T09:51:31.535Z,37.34
2023-03-01T09:54:34.096Z,37.65
2023-03-01T09:57:49.820Z,37.50
2023-03-01T10:00:52.405Z,36.90
2023-03-01T10:04:07.428Z,37.45
2023-03-01T10:07:12.345Z,36.93
2023-03-01T10:10:44.366Z,37.19
2023-03-01T10:13:58.877Z,35.97
2023-03-01T10:17:30.318Z,36.57
2023-03-01T10:20:51.830Z,36.71
2023-03-01T10:23:54.643Z,33.84
2023-03-01T10:27:00.176Z,30.09
2023-03-01T10:30:17.256Z,27.27
2023-03-01T10:33:27.400Z,28.14
2023-03-01T10:36:34.283Z,26.25
2023-03-01T10:39:36.615Z,24.69
2023-03-01T10:42:47.298Z,25.21
2023-03-01T10:45:49.927Z,23.99
2023-03-01T10:49:20.623Z,26.99
2023-03-01T10:52:42.398Z,29.14
2023-03-01T10:55:45.311Z,26.79
2023-03-01T10:59:06.702Z,25.90
2023-03-01T11:02:27.312Z,23.63
2023-03-01T11:05:31.332Z,23.05
2023-03-01T11:08:44.012Z,21.01
2023-03-01T11:11:46.625Z,23.68
2023-03-01T11:14:59.298Z,24.96
2023-03-01T11:18:13.517Z,27.38
2023-03-01T11:21:17.530Z,30.34
2023-03-01T11:24:26.720Z,32.43
2023-03-01T11:27:33.758Z,31.98
2023-03-01T11:31:15.880Z,30.32
2023-03-01T11:34:33.268Z,30.17
2023-03-01T11:37:38.313Z,27.73
2023-03-01T11:40:47.778Z,26.66
2023-03-01T11:43:55.106Z,27.61
2023-03-01T11:47:25.535Z,27.56
2023-03-01T11:50:34.769Z,26.87
2023-03-01T11:54:00.462Z,27.79
2023-03-01T11:57:11.137Z,28.98
2023-03-01T12:00:51.076Z,32.69
2023-03-01T12:04:01.710Z,34.30
2023-03-01T12:07:07.087Z,36.82
2023-03-01T12:10:23.328Z,36.35
2023-03-01T12:14:09.206Z,38.13
2023-03-01T12:17:42.645Z,38.43
2023-03-01T12:21:06.466Z,39.15
2023-03-01T12:24:27.036Z,38.29
2023-03-01T12:27:58.050Z,37.72
2023-03-01T12:31:31.701Z,36.27
2023-03-01T12:34:59.518Z,38.36
2023-03-01T12:38:37.484Z,36.89
2023-03-01T12:42:19.322Z,38.19
2023-03-01T12:45:51.503Z,36.81
2023-03-01T12:49:02.821Z,37.66
2023-03-01T12:52:17.278Z,38.29
2023-03-01T12:55:26.628Z,37.78
2023-03-01T12:58:49.281Z,38.05
2023-03-01T13:02:01.644Z,38.73
2023-03-01T13:05:26.292Z,38.79
2023-03-01T13:08:49.235Z,39.41
2023-03-01T13:11:51.789Z,39.99
2023-03-01T13:14:55.280Z,40.90
2023-03-01T13:18:28.649Z,40.63
2023-03-01T13:21:32.307Z,39.85
2023-03-01T13:24:40.630Z,39.62
2023-03-01T13:27:44.720Z,40.12
2023-03-01T13:30:49.163Z,42.39
2023-03-01T13:33:55.850Z,42.30
2023-03-01T13:37:11.451Z,41.79
2023-03-01T13:40:17.574Z,41.75
2023-03-01T13:43:35.458Z,41.98
2023-03-01T13:46:37.752Z,43.49
2023-03-01T13:49:48.317Z,42.88
2023-03-01T13:53:03.206Z,43.82
2023-03-01T13:56:18.822Z,44.71
2023-03-01T13:59:23.447Z,43.98
2023-03-01T14:02:25.841Z,44.13
2023-03-01T14:05:28.975Z,44.29
2023-03-01T14:08:32.258Z,45.22
2023-03-01T14:11:55.946Z,46.04
2023-03-01T14:15:07.664Z,46.61
2023-03-01T14:18:18.834Z,46.67
2023-03-01T14:21:21.036Z,46.42
2023-03-01T14:24:24.019Z,46.69
2023-03-01T14:27:30.984Z,46.59
2023-03-01T14:30:42.212Z,47.49
2023-03-01T14:33:56.850Z,46.97
2023-03-01T14:37:11.749Z,46.64
2023-03-01T14:40:32.705Z,47.17
2023-03-01T14:43:37.681Z,48.14
2023-03-01T14:46:42.144Z,48.16
2023-03-01T14:49:45.349Z,47.92
2023-03-01T14:52:50.769Z,48.65
2023-03-01T14:56:05.006Z,49.00
2023-03-01T14:59:10.288Z,49.18
2023-03-01T15:02:20.035Z,48.96
2023-03-01T15:05:30.093Z,48.53
2023-03-01T15:08:36.425Z,48.54
2023-03-01T15:11:41.992Z,49.24
2023-03-01T15:14:52.244Z,49.01
2023-03-01T15:18:06.382Z,48.37
2023-03-01T15:21:16.250Z,48.42
2023-03-01T15:24:23.805Z,48.26
2023-03-01T15:27:28.357Z,48.16
2023-03-01T15:30:38.328Z,48.45
2023-03-01T15:33:48.083Z,48.76
2023-03-01T15:36:51.457Z,49.87
2023-03-01T15:39:56.171Z,49.47
2023-03-01T15:43:06.310Z,48.48
2023-03-01T15:46:35.333Z,49.30
2023-03-01T15:49:54.510Z,49.63
2023-03-01T15:52:59.764Z,51.19
2023-03-01T15:56:01.957Z,50.68
2023-03-01T15:59:05.569Z,50.98
2023-03-01T16:02:13.535Z,51.36
2023-03-01T16:05:26.273Z,51.87
2023-03-01T16:08:28.575Z,51.97
2023-03-01T16:11:32.273Z,51.75
2023-03-01T16:14:34.487Z,52.19
2023-03-01T16:17:36.899Z,52.74
2023-03-01T16:20:39.486Z,53.93
2023-03-01T16:23:42.566Z,54.41
2023-03-01T16:26:45.894Z,53.68
2023-03-01T16:29:48.352Z,52.88
2023-03-01T16:32:51.400Z,53.08
2023-03-01T16:35:54.257Z,54.58
2023-03-01T16:38:59.513Z,56.17
